Orange, TX (77630)

11:05 AM CST on December 22, 2014 (GMT -0600)
Orange County | Change Station
CLOSE
Current Station
Airport
Location: Orange,
Elevation: 13 ft
Nearby Weather Stations

Elev 13 ft 30.07 °N, 93.80 °W | Updated 10 minutes ago

Overcast
Overcast
67 °F
Feels Like 67 °F
N
12
Wind Variable Wind from South

Today
High -- | Low -- °F
--% Chance of Precip.
Yesterday
High -- | Low -- °F
Precip. -- in
7:07 AM 5:20 PM
New Moon, 1% visible
Pressure 29.76 in
Visibility 7.0 miles
Clouds Mostly Cloudy 400 ft
Dew Point 64 °F
Humidity 89%
Rainfall 0.00 in
Snow Depth Not available.
UV 2 out of 12
Pollen 7.10 out of 12
Air Quality Not available.
Flu Activity Not available.
METAR KORG 221655Z AUTO 17010KT 7SM BKN004 20/18 A2976 RMK AO2 T01950177

More Conditions Fewer Conditions

Pressure 29.76 in
Visibility 7.0 miles
Clouds Mostly Cloudy 400 ft
Dew Point 64 °F
Humidity 89%
Rainfall 0.00 in
Snow Depth Not available.
UV 2 out of 12
Pollen 7.10 out of 12
Air Quality Not available.
Flu Activity Not available.
METAR KORG 221655Z AUTO 17010KT 7SM BKN004 20/18 A2976 RMK AO2 T01950177

More Conditions Fewer Conditions

10-Day Weather Forecast

Almanac

Astronomy

Dec. 22, 2014 Rise Set
Actual Time
Civil Twilight
Nautical Twilight
Astronomical Twilight
Moon
Length of Visible Light
Length of Day
Tomorrow will be .
, % of the Moon is Illuminated

Today's Extremes

State Highs State Lows

Community

WunderPhotos

Upload Photos

1,779,645 photos uploaded!

WunderBlogs® & News

Nearby

Air Quality

  Air Quality AQ Index Pollutant
Not available.

Snow Depth

Station Depth Elevation

Earthquake Activity

City Distance Mag. Time & Date
Minimum magnitude displayed is 2.5.

Coastal Water Temperatures

Place Temperature

Nearby Weather Stations